Weather observations for the past three days for
Hutchinson, Hutchinson Municipal Airport-Butler Field
Metric (Imperial)
Date Time (cdt) Wind (kph) Vis. (km) Weather Sky Cond. Temperature (ºC) Relative Humidity Wind Chill (°C) Heat Index (°C) Pressure Precipitation (cm)
Air Dwpt 6 hour altimeter (cm) sea level (mb) 1 hr 3 hr 6 hr
Max. Min.
06 06:16 E 7 11.27 Fair CLR 18.6 18.3 98% 76.38 0.0
06 05:55 E 6 11.27 Fair CLR 18.7 18.5 99% 76.38 0.0
06 05:35 E 7 11.27 Fair CLR 18.8 18.5 98% 76.38 0.0
06 05:15 E 7 16.09 Fair CLR 19 18.7 98% 76.35 0.0
06 04:55 E 7 11.27 Fair CLR 19 18.7 98% 76.35 0.0
06 04:35 E 6 11.27 Fair CLR 19 18.7 98% 76.35 0.0
06 04:15 SE 7 11.27 Fair CLR 19.1 18.8 98% 76.33 0.0
06 03:55 E 7 16.09 Fair CLR 19.3 19 98% 76.33 0.0
06 03:35 E 7 11.27 Fair CLR 19 18.6 98% 76.33 0.0
06 03:15 E 6 11.27 Fair CLR 19 18.7 98% 76.33 0.0
06 02:55 SE 6 11.27 Fair CLR 19.3 19 98% 76.3 0.0
06 02:35 E 7 16.09 Fair CLR 20.1 19.9 99% 76.3 0.0
06 02:15 E 7 16.09 Fair CLR 20.2 19.9 98% 76.33 0.0
06 01:55 E 7 16.09 Fair CLR 20.5 20.1 98% 76.33 0.0
06 01:35 E 7 16.09 Partly Cloudy SCT110 20.8 20.5 98% 76.33 0.0
06 01:15 E 11 16.09 Mostly Cloudy BKN100 21 20.7 98% 76.35 0.0
06 00:55 E 7 16.09 Partly Cloudy SCT100 20.8 20.5 26.1 20.8 98% 76.35 0.0
06 00:35 E 9 16.09 Fair CLR 21 20.7 98% 76.33 0.0
06 00:15 E 9 16.09 Fair CLR 21 20.7 98% 76.35 0.0
05 23:55 E 9 16.09 Partly Cloudy SCT110 21.2 21 99% 76.33 0.0
05 23:35 E 11 16.09 Mostly Cloudy BKN110 21.6 21.2 98% 76.33 0.0
05 23:15 E 7 16.09 Mostly Cloudy BKN100 21.6 21.3 98% 76.35 0.0
05 22:55 E 11 16.09 Mostly Cloudy BKN100 21.9 21.4 97% 76.35 0.0
05 22:35 E 9 16.09 Partly Cloudy SCT100 22 21.2 95% 76.33 0.0
05 22:15 E 11 16.09 Partly Cloudy SCT110 22.1 21.5 96% 76.33 0.0
05 21:55 E 11 16.09 Mostly Cloudy BKN110 22.1 21.5 96% 76.35 0.0
05 21:35 SE 6 16.09 Mostly Cloudy BKN110 21.4 20.9 97% 76.35 0.0
05 21:15 SE 6 16.09 Mostly Cloudy BKN110 21.9 21.2 96% 76.33 0.0
05 20:55 Calm 16.09 Partly Cloudy SCT110 21.7 21 96% 76.33 0.0
05 20:35 SE 6 16.09 Partly Cloudy SCT022 22.1 21.2 95% 76.28 0.0
05 20:15 SE 7 16.09 Fair CLR 22.4 21 92% 76.25 0.0
05 19:55 S 9 16.09 Fair CLR 22.7 21.5 93% 76.23 0.0
05 19:35 SE 7 16.09 Fair CLR 24 21.5 86% 24 76.2 0.0
05 19:15 SE 9 16.09 Fair CLR 25.2 21.6 81% 26 76.2 0.0
05 18:55 SE 9 16.09 Partly Cloudy SCT120 26.4 21.8 28.4 22.8 76% 28 76.2 0.0
05 18:35 SE 7 16.09 Mostly Cloudy BKN110 26.8 21.1 71% 29 76.2 0.0
05 18:15 SE 7 16.09 Partly Cloudy SCT110 26.5 21 72% 28 76.2 0.0
05 17:55 E 11 16.09 Fair CLR 27.7 21 67% 30 76.17 0.0
05 17:35 E 11 16.09 Fair CLR 27.5 20.4 65% 29 76.17 0.0
05 17:15 E 17 16.09 Fair CLR 28 21.1 66% 30 76.15 0.0
05 16:55 E 15 16.09 Fair CLR 28 21.3 67% 30 76.17 0.0
05 16:35 E 17 16.09 Fair CLR 28.1 21.7 68% 31 76.17 0.0
05 16:15 E 19 G 30 16.09 Fair CLR 28.1 22.1 70% 31 76.17 0.0
05 15:55 E 19 G 28 16.09 Fair CLR 26.5 22 76% 28 76.17 0.0
05 15:35 E 17 G 26 16.09 Fair CLR 26.5 22 76% 28 76.2 0.0
05 15:15 E 17 G 30 16.09 Fair CLR 26 21.9 78% 28 76.2 0.0
05 12:55 E 17 16.09 Overcast OVC004 22.6 20.5 22.6 17.6 88% 76.3 0.0
05 12:35 E 17 6.44 Fog/Mist OVC002 21.5 20.4 93% 76.35 0.0
05 12:15 E 11 6.44 Fog/Mist OVC002 20.5 20.1 98% 76.4 0.0
05 11:55 SE 11 8.05 Fog/Mist OVC002 20 19.6 98% 76.43 0.0
05 11:35 E 13 11.27 Overcast OVC002 20 19.7 98% 76.4 0.0
05 11:15 E 13 11.27 Overcast OVC002 19.9 19.6 98% 76.38 0.0
05 10:55 E 11 11.27 Overcast OVC002 19 19 100% 76.38 0.0
05 10:35 E 9 11.27 Overcast OVC002 19.1 18.8 98% 76.38 0.0
05 10:15 E 9 2.01 Fog/Mist OVC002 18.7 18.5 99% 76.38 0.0
05 09:55 NE 11 0.80 Fog OVC002 18.5 18.2 98% 76.35 0.0
05 09:35 E 9 0.80 Fog OVC002 18.2 18 99% 76.35 0.0
05 09:16 NE 9 0.80 Fog OVC002 18 17.7 98% 76.38 0.0
05 08:55 E 7 0.80 Fog OVC002 18 17.6 98% 76.38 0.0
05 08:35 E 11 0.80 Fog OVC002 17.9 17.5 98% 76.33 0.0
05 08:15 E 15 0.80 Fog OVC002 17.9 17.6 98% 76.3 0.0
05 07:55 E 13 0.80 Fog OVC002 17.8 17.5 98% 76.3 0.0
05 07:35 E 7 0.80 Fog OVC002 17.7 17.5 99% 76.3 0.0
05 07:15 E 11 0.40 Fog OVC002 17.6 17.3 98% 76.25 0.0
05 06:55 E 9 0.80 Fog OVC002 17.6 17.3 18.2 17 98% 76.25 0.0
05 06:35 E 11 0.40 Fog OVC002 17.6 17.3 98% 76.28 0.0
05 06:15 NE 11 0.80 Fog OVC002 17.6 17.3 98% 76.25 0.0
05 05:55 E 9 0.80 Fog OVC002 17.6 17.3 98% 76.25 0.0
05 05:35 E 11 0.80 Fog OVC002 17.6 17.3 98% 76.23 0.0
05 05:15 E 9 0.80 Fog OVC002 17.6 17.3 98% 76.2 0.0
05 04:55 NE 9 0.80 Fog OVC002 17.6 17.3 98% 76.23 0.0
05 04:35 E 11 0.80 Fog OVC002 17.6 17.3 98% 76.2 0.0
05 04:15 E 13 0.80 Fog OVC002 17.5 17.2 98% 76.15 0.0
05 03:55 NE 15 0.80 Fog OVC002 17.5 17.1 98% 76.17 0.0
05 03:35 E 15 0.80 Fog OVC002 17.3 17 98% 76.2 0.0
05 03:15 NE 9 1.61 Fog/Mist OVC002 17.2 17 99% 76.23 0.0
05 02:55 NE 13 16.09 Partly Cloudy SCT002 17.1 16.8 98% 76.23 0.0
05 02:35 NE 9 16.09 Fair CLR 17.1 16.8 98% 76.23 0.0
05 02:15 NE 6 16.09 Fair CLR 17.4 17.1 98% 76.23 0.0
05 01:55 NE 9 16.09 Fair CLR 17.5 17.2 98% 76.23 0.0
05 01:35 NE 9 16.09 Fair CLR 17.6 17.3 98% 76.23 0.0
05 01:15 NE 6 16.09 Fair CLR 18 17.6 98% 76.23 0.0
05 00:55 E 9 16.09 Fair CLR 18.3 17.8 27 18.3 97% 76.23 0.0
05 00:35 NE 11 16.09 Fair CLR 18.6 18.1 97% 76.23 0.0
05 00:15 NE 13 16.09 Fair CLR 19.1 18.3 95% 76.2 0.0
04 23:55 E 15 16.09 Fair CLR 20 18.5 91% 76.2 0.0
04 23:35 NE 17 16.09 Fair CLR 20.4 18.9 91% 76.17 0.0
04 23:15 NE 15 16.09 Fair CLR 20.7 19.2 91% 76.17 0.0
04 22:55 E 13 16.09 Fair CLR 21.4 19.1 87% 76.2 0.0
04 22:35 E 13 16.09 Fair CLR 22 19.5 86% 76.17 0.0
04 22:15 E 11 16.09 Fair CLR 22 19 83% 76.15 0.0
04 21:55 E 11 16.09 Fair CLR 22 19.7 87% 76.15 0.0
04 21:35 E 11 16.09 Fair CLR 22.8 19.8 83% 76.12 0.0
04 21:15 E 7 16.09 Fair CLR 23.2 20 82% 76.12 0.0
04 20:55 NE 9 16.09 Fair CLR 23.2 20.1 83% 76.1 0.0
04 20:35 NE 6 16.09 Fair CLR 23.2 20.3 84% 76.1 0.0
04 20:15 NE 7 16.09 Fair CLR 24.1 20.3 79% 25 76.1 0.0
04 19:55 E 6 16.09 Fair CLR 24.7 20.5 78% 25 76.1 0.0
04 19:35 E 7 16.09 Fair CLR 25.6 20.7 74% 27 76.1 0.0
04 19:15 E 6 16.09 Fair CLR 26.2 21.1 74% 28 76.07 0.0
04 18:55 E 9 16.09 Fair CLR 27.1 21.3 29.3 24.4 71% 29 76.07 0.0
04 18:35 E 11 16.09 Fair CLR 27.7 21.4 69% 30 76.07 0.0
04 18:15 E 9 16.09 Fair CLR 28.1 21.7 68% 31 76.07 0.0
04 17:55 E 11 16.09 Fair CLR 28.3 21.8 68% 31 76.05 0.0
04 17:35 E 7 16.09 Fair CLR 28.6 21.5 65% 31 76.05 0.0
04 17:15 E 7 16.09 Fair CLR 28.9 22 66% 32 76.05 0.0
04 16:55 E 11 16.09 Fair CLR 28.9 21.9 66% 32 76.05 0.0
04 16:35 E 11 16.09 Fair CLR 29 21.9 66% 32 76.02 0.0
04 16:15 E 13 16.09 Fair CLR 29.1 21.7 64% 32 76 0.0
04 15:55 NE 11 16.09 Fair CLR 29 21.5 64% 32 76 0.0
04 15:35 E 13 16.09 Fair CLR 28.7 22 67% 32 76.02 0.0
04 15:15 E 11 16.09 Fair CLR 28 22 70% 31 76.02 0.0
04 14:56 NE 13 16.09 Fair CLR 28.1 22.2 70% 31 76.02 0.0
04 14:35 NE 11 16.09 Partly Cloudy SCT017 27.5 22.2 73% 30 76.02 0.0
04 14:15 Calm 16.09 Mostly Cloudy BKN015 26.8 21.9 75% 29 76.05 0.0
04 13:55 Calm 11.27 Overcast OVC013 26.2 21.9 77% 28 76.05 0.0
04 13:35 NE 15 11.27 Overcast OVC011 25.3 21.8 81% 26 76.05 0.0
04 13:15 NE 11 16.09 Overcast OVC009 24.4 21.6 84% 25 76.05 0.0
04 12:55 NE 9 16.09 Overcast OVC009 24.1 21.7 24.1 17.2 87% 24 76.05 0.0
04 12:35 Calm 16.09 Overcast OVC007 23.7 21.6 88% 76.05 0.0
04 12:15 Calm 16.09 Overcast OVC005 22.9 22.2 96% 76.05 0.0
04 11:55 N 11 16.09 Overcast OVC003 22.5 22.2 98% 76.05 0.0
04 11:35 Calm 11.27 Overcast OVC003 22.3 22 98% 76 0.0
04 11:15 N 11 4.83 Fog/Mist OVC001 22 21.6 98% 76 0.0
04 10:55 Calm 2.82 Fog/Mist OVC001 22 21.6 98% 76 0.0
04 10:35 Calm 4.02 Fog/Mist OVC001 22.4 22.1 98% 75.97 0.0
04 10:15 N 7 2.01 Fog/Mist OVC001 22.4 22.1 98% 75.95 0.0
04 09:55 N 9 0.80 Fog OVC001 22.3 22 98% 75.92 0.0
04 09:35 NE 7 0.40 Fog OVC001 22.1 21.8 98% 75.92 0.0
04 09:15 NE 7 0.24 Fog OVC001 22 21.6 98% 75.92 0.0
04 08:55 NE 7 0.24 Fog OVC001 21.6 21.3 98% 75.92 0.0
04 08:35 NE 7 0.24 Fog OVC001 21.1 20.8 98% 75.9 0.0
04 08:15 NE 9 0.24 Fog OVC001 20.9 20.6 98% 75.87 0.0
04 07:55 NE 7 0.24 Fog OVC001 20.5 20.2 98% 75.87 0.0
04 07:35 Calm 0.24 Fog OVC001 19 18.7 98% 75.84 0.0
04 07:15 E 6 0.40 Fog BKN001 17.3 17 98% 75.84 0.0
04 06:55 Calm 1.21 Fog/Mist BKN001 17.1 16.8 21.3 17 98% 75.82 0.0
04 06:35 Calm 0.24 Fog OVC001 17 16.7 98% 75.82 0.0
04 06:15 N 6 0.24 Fog OVC001 17.5 17.2 98% 75.79 0.0
04 05:55 Calm 0.40 Fog BKN001 17.5 17.2 98% 75.79 0.0
04 05:35 Calm 4.02 Fog/Mist CLR 18.1 17.9 99% 75.79 0.0
04 05:15 Calm 16.09 Fair CLR 18.3 18 98% 75.79 0.0
04 04:55 Calm 3.22 Fog/Mist CLR 18.9 18.6 98% 75.77 0.0
04 04:35 Calm 1.61 Fog/Mist VV007 19.4 19 98% 75.77 0.0
04 04:15 Calm 0.80 Fog VV005 18.7 18.4 98% 75.77 0.0
04 03:55 Calm 0.40 Fog VV002 18.9 18.6 98% 75.77 0.0
04 03:35 Calm 0.80 Fog VV005 19.8 19.5 98% 75.74 0.0
04 03:15 Calm 6.44 Fog/Mist CLR 20.8 20.6 99% 75.74 0.0
04 02:55 Calm 8.05 Fog/Mist CLR 20.8 20.5 98% 75.72 0.0
04 02:35 Calm 4.02 Fog/Mist CLR 20.3 20 98% 75.74 0.0
04 02:15 Calm 3.22 Fog/Mist CLR 20.6 20.3 98% 75.74 0.0
04 01:55 Calm 8.05 Fog/Mist CLR 20.9 20.5 98% 75.74 0.0
04 01:35 Calm 8.05 Fog/Mist CLR 20.6 20.4 99% 75.74 0.0
04 01:15 Calm 4.02 Fog/Mist CLR 20.8 20.5 98% 75.74 0.0
04 00:55 Calm 11.27 Fair CLR 21.2 20.9 27.7 21.2 98% 75.74 0.0
04 00:35 Calm 16.09 Fair CLR 21.6 21.3 98% 75.74 0.0
04 00:15 Calm 16.09 Fair CLR 22 21.6 98% 75.72 0.0
03 23:55 Calm 16.09 Fair CLR 22.6 22.2 98% 75.72 0.0
03 23:35 S 6 16.09 Fair CLR 22.2 22 99% 75.72 0.0
03 23:15 Calm 16.09 Fair CLR 22.1 21.8 98% 75.72 0.0
03 22:55 SE 7 16.09 Fair CLR 22.2 22 99% 75.72 0.0
03 22:35 Calm 16.09 Fair CLR 22 21.7 98% 75.74 0.0
03 22:15 SE 6 16.09 Fair CLR 22.5 22.2 98% 75.74 0.0
03 21:55 SE 7 16.09 Fair CLR 22.2 22 99% 75.72 0.0
03 21:35 SE 6 16.09 Fair CLR 23.2 22.3 95% 75.72 0.0
03 21:15 E 6 16.09 Fair CLR 23.4 22.5 95% 75.72 0.0
03 20:55 SE 9 16.09 Fair CLR 22.9 22.3 96% 75.67 0.0
03 20:35 SE 6 16.09 Fair CLR 24 22.6 92% 23 75.69 0.0
03 20:15 SE 6 16.09 Fair CLR 23.8 22.9 95% 75.67 0.0
03 19:55 SE 6 16.09 Fair CLR 24.8 22.6 88% 25 75.64 0.0
03 19:35 SE 7 16.09 Fair CLR 25.7 22.8 84% 27 75.64 0.0
03 19:15 SE 7 16.09 Fair CLR 27.3 22.7 76% 30 75.64 0.0
03 18:55 SE 9 16.09 Fair CLR 28 22.6 30.7 28 73% 31 75.62 0.0
03 18:35 S 9 16.09 Fair CLR 29 22.1 66% 32 75.64 0.0
03 18:15 S 13 16.09 Fair CLR 29.3 22 65% 32 75.64 0.0
03 17:55 S 17 16.09 Fair CLR 29.6 21.5 62% 32 75.62 0.0
03 17:35 S 15 16.09 Fair CLR 30 22 62% 33 75.57 0.0
03 17:15 S 19 G 28 16.09 Fair CLR 30.1 21.8 61% 33 75.57 0.0
03 16:55 S 15 16.09 Fair CLR 30.2 21.9 61% 33 75.57 0.0
03 16:35 S 19 G 28 16.09 Partly Cloudy SCT044 30.2 21.7 60% 33 75.57 0.0
03 16:15 S 20 G 33 16.09 Partly Cloudy SCT042 30.6 21.8 59% 34 75.59 0.0
03 15:55 S 15 G 30 16.09 Fair CLR 30.5 22 60% 34 75.59 0.0
03 15:35 S 19 G 33 16.09 Fair CLR 30 22.1 63% 33 75.62 0.0
03 15:15 SE 17 G 26 16.09 Fair CLR 29.8 22.5 65% 33 75.64 0.0
03 14:56 S 17 16.09 Fair CLR 29.7 21.7 62% 33 75.62 0.0
03 14:35 S 17 16.09 Fair CLR 28.6 21.1 64% 31 75.67 0.0
03 14:15 S 19 16.09 Fair CLR 28.9 20.8 62% 31 75.64 0.0
03 13:55 S 17 G 26 16.09 Fair CLR 29.1 21.4 63% 32 75.64 0.0
03 13:35 S 19 G 33 16.09 Fair CLR 29.2 21.1 62% 32 75.67 0.0
03 13:15 S 17 16.09 Thunderstorm in Vicinity CLR 29 21.3 63% 32 75.69 0.0
03 12:55 SE 15 G 26 16.09 Fair CLR 27.9 21.8 27.9 20.3 69% 30 75.69 0.0
03 12:35 SE 19 16.09 Fair CLR 27 21 70% 29 75.72 0.0
03 12:15 S 17 16.09 Fair CLR 26.6 21 71% 28 75.74 0.0
03 11:55 S 19 16.09 Fair CLR 26.8 20.8 70% 29 75.74 0.0
03 11:35 S 19 16.09 Thunderstorm in Vicinity CLR 26 20.2 70% 27 75.77 0.0
03 11:15 SE 15 16.09 Fair CLR 25.5 20.1 72% 27 75.77 0.0
03 10:55 SE 19 G 28 16.09 Fair CLR 26 20.6 72% 27 75.74 0.0
03 10:35 SE 13 16.09 Fair CLR 26.2 21 73% 28 75.77 0.0
03 10:15 SE 13 16.09 Fair CLR 25 20.4 76% 26 75.77 0.0
03 09:55 SE 11 16.09 Fair CLR 24.9 20.2 75% 26 75.77 0.0
03 09:35 SE 11 16.09 Fair CLR 24.9 20.7 78% 26 75.77 0.0
03 09:15 SE 13 16.09 Fair CLR 24.2 20.3 79% 25 75.74 0.0
03 08:55 SE 13 16.09 Fair CLR 23.6 20.6 83% 75.77 0.0
03 08:35 E 9 16.09 Fair CLR 23 20.5 86% 75.79 0.0
03 08:15 E 7 16.09 Fair CLR 22.5 20.4 88% 75.79 0.0
03 07:55 E 7 16.09 Partly Cloudy SCT120 21.7 20.7 94% 75.79 0.0
03 07:35 E 6 16.09 Partly Cloudy SCT120 20.8 20.5 98% 75.79 0.0
03 07:15 E 6 16.09 Fair CLR 20.5 20.2 98% 75.77 0.0
03 06:55 SE 6 8.05 Fog/Mist CLR 20.3 20 21.7 20.1 98% 75.77 0.0
03 06:35 SE 7 11.27 Partly Cloudy SCT120 20.5 20.1 98% 75.77 0.0
Date Time (cdt) Wind (kph) Vis. (km) Weather Sky Cond. Air Dwpt Max. Min. Relative Humidity Wind Chill (°C) Heat Index (°C) altimeter (cm) sea level (mb) 1 hr 3 hr 6 hr
6 hour
Temperature (ºC) Pressure Precipitation (cm)